Time;durP1;ratioP1;P1;durP2;ratioP2;P2;SDS_P1;SDS_P2;PMS_P1;PMS_P2;Temp;Humidity;BMP_temperature;BMP_pressure;BME280_temperature;BME280_humidity;BME280_pressure;Samples;Min_cycle;Max_cycle;Signal;HPM_P1;HPM_P2
2023/03/22 00:04:42;;;;;;;3.22;2.75;;;;;;;;;;10305393;28;20820;-79
2023/03/22 00:09:43;;;;;;;4.32;3.95;;;;;;;;;;10321946;28;20224;-80
2023/03/22 00:14:44;;;;;;;4.13;3.80;;;;;;;;;;10304726;28;20255;-79
2023/03/22 00:19:46;;;;;;;4.20;3.80;;;;;;;;;;10323911;28;20216;-80
2023/03/22 00:24:47;;;;;;;5.88;4.22;;;;;;;;;;10316006;28;20255;-79
2023/03/22 00:29:51;;;;;;;7.25;4.90;;;;;;;;;;10314396;28;20213;-78
2023/03/22 00:34:52;;;;;;;5.30;4.85;;;;;;;;;;10320427;28;20235;-79
2023/03/22 00:39:53;;;;;;;5.57;5.13;;;;;;;;;;10316564;28;20705;-79
2023/03/22 00:44:55;;;;;;;5.57;4.90;;;;;;;;;;10312861;28;20227;-78
2023/03/22 00:49:56;;;;;;;5.43;4.65;;;;;;;;;;10311502;28;20557;-78
2023/03/22 00:54:59;;;;;;;6.07;5.38;;;;;;;;;;10312014;28;20445;-80
2023/03/22 01:00:09;;;;;;;9.75;5.57;;;;;;;;;;10329531;28;20224;-79
2023/03/22 01:05:14;;;;;;;9.10;5.63;;;;;;;;;;10299964;28;20680;-80
2023/03/22 01:10:17;;;;;;;7.72;4.85;;;;;;;;;;10306769;28;20198;-80
2023/03/22 01:15:18;;;;;;;9.88;6.22;;;;;;;;;;10318116;28;20223;-79
2023/03/22 01:20:19;;;;;;;8.05;5.72;;;;;;;;;;10315578;28;20282;-79
2023/03/22 01:25:20;;;;;;;8.18;5.78;;;;;;;;;;10321108;28;20223;-80
2023/03/22 01:30:21;;;;;;;9.63;5.15;;;;;;;;;;10308307;28;20227;-79
2023/03/22 01:35:22;;;;;;;7.75;5.90;;;;;;;;;;10292354;28;20240;-80
2023/03/22 01:40:24;;;;;;;6.20;5.60;;;;;;;;;;10320808;28;20388;-79
2023/03/22 01:45:25;;;;;;;10.32;5.40;;;;;;;;;;10324689;28;20232;-79
2023/03/22 01:50:26;;;;;;;7.50;5.53;;;;;;;;;;10313828;28;20338;-79
2023/03/22 01:55:29;;;;;;;9.20;6.55;;;;;;;;;;10313673;28;20234;-78
2023/03/22 02:00:42;;;;;;;6.13;5.53;;;;;;;;;;10288434;28;20231;-80
2023/03/22 02:05:54;;;;;;;6.97;6.28;;;;;;;;;;10299040;28;20494;-80
2023/03/22 02:11:00;;;;;;;9.25;6.47;;;;;;;;;;10308139;28;20422;-79
2023/03/22 02:16:08;;;;;;;7.32;6.22;;;;;;;;;;10317854;28;20475;-80
2023/03/22 02:21:25;;;;;;;6.35;5.50;;;;;;;;;;10307249;28;20274;-80
2023/03/22 02:26:48;;;;;;;9.98;6.40;;;;;;;;;;10301810;28;20742;-79
2023/03/22 02:31:57;;;;;;;6.68;5.88;;;;;;;;;;10300937;28;20610;-79
2023/03/22 02:37:06;;;;;;;10.73;5.85;;;;;;;;;;10324586;28;20494;-82
2023/03/22 02:42:07;;;;;;;9.07;5.88;;;;;;;;;;10299226;28;20315;-82
2023/03/22 02:47:15;;;;;;;11.02;6.45;;;;;;;;;;10295695;28;20227;-80
2023/03/22 02:52:24;;;;;;;7.78;6.03;;;;;;;;;;10312628;28;20224;-82
2023/03/22 02:57:32;;;;;;;6.63;5.82;;;;;;;;;;10303395;28;20227;-82
2023/03/22 03:02:34;;;;;;;7.72;6.57;;;;;;;;;;10299434;28;20233;-80
2023/03/22 03:07:37;;;;;;;7.00;6.30;;;;;;;;;;10306793;28;20216;-80
2023/03/22 03:12:38;;;;;;;10.10;6.80;;;;;;;;;;10334492;28;20228;-83
2023/03/22 03:17:49;;;;;;;12.52;7.45;;;;;;;;;;10306625;28;20232;-81
2023/03/22 03:22:50;;;;;;;7.78;6.25;;;;;;;;;;10330501;28;20221;-82
2023/03/22 03:28:14;;;;;;;10.13;7.47;;;;;;;;;;10320503;28;20212;-81
2023/03/22 03:33:17;;;;;;;9.32;6.55;;;;;;;;;;10316801;28;20220;-80
2023/03/22 03:38:21;;;;;;;9.75;6.97;;;;;;;;;;10318146;28;20233;-82
2023/03/22 03:43:24;;;;;;;8.20;6.07;;;;;;;;;;10317447;28;20243;-83
2023/03/22 03:48:29;;;;;;;12.02;7.75;;;;;;;;;;10312939;28;20235;-81
2023/03/22 03:53:30;;;;;;;9.98;7.03;;;;;;;;;;10293316;28;20220;-79
2023/03/22 03:58:32;;;;;;;10.32;7.32;;;;;;;;;;10291502;28;20338;-79
2023/03/22 04:03:33;;;;;;;11.75;7.28;;;;;;;;;;10310732;28;20274;-82
2023/03/22 04:08:55;;;;;;;10.05;6.60;;;;;;;;;;10320151;28;20213;-82
2023/03/22 04:13:59;;;;;;;11.13;7.07;;;;;;;;;;10301006;28;20229;-79
2023/03/22 04:19:00;;;;;;;9.93;6.60;;;;;;;;;;10311783;28;20894;-79
2023/03/22 04:24:02;;;;;;;12.00;6.90;;;;;;;;;;10315194;28;20258;-78
2023/03/22 04:29:08;;;;;;;10.20;7.13;;;;;;;;;;10310905;28;20383;-79
2023/03/22 04:34:12;;;;;;;8.90;7.35;;;;;;;;;;10299007;28;20225;-80
2023/03/22 04:39:26;;;;;;;10.90;6.22;;;;;;;;;;10309599;28;20304;-79
2023/03/22 04:44:36;;;;;;;7.50;5.75;;;;;;;;;;10298305;28;20849;-79
2023/03/22 04:49:37;;;;;;;7.18;6.40;;;;;;;;;;10322623;28;20294;-80
2023/03/22 04:54:39;;;;;;;7.78;6.47;;;;;;;;;;10311484;28;20224;-79
2023/03/22 04:59:40;;;;;;;8.90;6.85;;;;;;;;;;10309270;28;20303;-79
2023/03/22 05:04:42;;;;;;;11.88;6.63;;;;;;;;;;10302362;28;20569;-79
2023/03/22 05:09:52;;;;;;;8.18;6.72;;;;;;;;;;10291956;28;20285;-80
2023/03/22 05:14:54;;;;;;;8.57;7.20;;;;;;;;;;10321524;28;20248;-79
2023/03/22 05:20:07;;;;;;;12.48;7.63;;;;;;;;;;10316578;28;20212;-80
2023/03/22 05:25:09;;;;;;;10.10;6.63;;;;;;;;;;10303944;28;20220;-81
2023/03/22 05:30:12;;;;;;;11.57;7.43;;;;;;;;;;10303694;28;20733;-79
2023/03/22 05:35:22;;;;;;;9.90;7.25;;;;;;;;;;10313657;28;20251;-80
2023/03/22 05:40:27;;;;;;;11.80;7.45;;;;;;;;;;10300908;28;20220;-80
2023/03/22 05:45:30;;;;;;;6.85;6.25;;;;;;;;;;10293505;28;20234;-80
2023/03/22 05:50:40;;;;;;;9.43;6.60;;;;;;;;;;10294573;28;20228;-80
2023/03/22 05:55:43;;;;;;;10.27;7.43;;;;;;;;;;10279811;28;20503;-82
2023/03/22 06:00:48;;;;;;;8.38;7.07;;;;;;;;;;10313457;28;20225;-81
2023/03/22 06:05:59;;;;;;;10.27;7.38;;;;;;;;;;10318541;28;20702;-82
2023/03/22 06:11:11;;;;;;;10.10;6.53;;;;;;;;;;10309859;28;20256;-79
2023/03/22 06:16:13;;;;;;;8.75;7.28;;;;;;;;;;10291340;28;20235;-80
2023/03/22 06:21:16;;;;;;;13.55;7.28;;;;;;;;;;10313925;28;20216;-82
2023/03/22 06:26:17;;;;;;;12.90;7.05;;;;;;;;;;10293461;28;20228;-80
2023/03/22 06:31:19;;;;;;;10.82;7.55;;;;;;;;;;10304406;28;20947;-80
2023/03/22 06:36:28;;;;;;;11.48;7.47;;;;;;;;;;10309358;28;20231;-78
2023/03/22 06:41:50;;;;;;;7.15;6.50;;;;;;;;;;10320035;28;20274;-81
2023/03/22 06:46:51;;;;;;;11.15;6.97;;;;;;;;;;10320957;28;20691;-79
2023/03/22 06:57:44;;;;;;;9.32;6.63;;;;;;;;;;10289205;28;20221;-79
2023/03/22 07:08:57;;;;;;;7.07;6.38;;;;;;;;;;10303734;28;20755;-80
2023/03/22 07:14:51;;;;;;;9.18;6.55;;;;;;;;;;10307734;28;20227;-80
2023/03/22 07:20:40;;;;;;;9.85;6.22;;;;;;;;;;10238900;28;20493;-80
2023/03/22 07:26:12;;;;;;;9.43;6.82;;;;;;;;;;10298322;28;20224;-79
2023/03/22 07:31:46;;;;;;;10.30;7.30;;;;;;;;;;10302209;28;20713;-79
2023/03/22 07:37:31;;;;;;;9.85;6.10;;;;;;;;;;10280439;28;20822;-81
2023/03/22 07:42:39;;;;;;;9.35;6.75;;;;;;;;;;10308330;28;20232;-80
2023/03/22 07:47:56;;;;;;;12.30;6.90;;;;;;;;;;10307589;28;20212;-76
2023/03/22 07:53:24;;;;;;;11.88;6.70;;;;;;;;;;10288009;28;20271;-79
2023/03/22 07:58:25;;;;;;;8.05;7.25;;;;;;;;;;10284871;28;20309;-79
2023/03/22 08:03:26;;;;;;;7.40;6.32;;;;;;;;;;10303863;28;20239;-78
2023/03/22 08:08:35;;;;;;;10.30;6.55;;;;;;;;;;10307322;28;20310;-81
2023/03/22 08:13:36;;;;;;;12.45;7.05;;;;;;;;;;10311420;28;20256;-79
2023/03/22 08:18:38;;;;;;;9.13;6.00;;;;;;;;;;10306776;28;20220;-82
2023/03/22 08:23:40;;;;;;;6.90;6.20;;;;;;;;;;10316755;28;20220;-83
2023/03/22 08:29:00;;;;;;;7.82;6.40;;;;;;;;;;10342843;28;20211;-82
2023/03/22 08:34:04;;;;;;;5.93;5.53;;;;;;;;;;10300773;28;20330;-83
2023/03/22 08:39:07;;;;;;;7.53;6.05;;;;;;;;;;10313105;28;20224;-82
2023/03/22 08:44:34;;;;;;;6.60;5.95;;;;;;;;;;10315142;28;20323;-82
2023/03/22 08:49:37;;;;;;;6.53;5.93;;;;;;;;;;10314751;28;20216;-81
2023/03/22 08:54:46;;;;;;;8.50;6.78;;;;;;;;;;10292405;28;20754;-83
2023/03/22 09:00:06;;;;;;;7.32;5.75;;;;;;;;;;10319732;28;21643;-82
2023/03/22 09:05:18;;;;;;;6.38;5.78;;;;;;;;;;10300973;28;20374;-84
2023/03/22 09:10:19;;;;;;;6.30;5.53;;;;;;;;;;10320764;28;20184;-83
2023/03/22 09:15:23;;;;;;;8.35;5.35;;;;;;;;;;10329145;28;20228;-80
2023/03/22 09:20:39;;;;;;;6.22;5.57;;;;;;;;;;10298396;28;20282;-80
2023/03/22 09:25:45;;;;;;;7.68;3.85;;;;;;;;;;10309931;28;20224;-80
2023/03/22 09:30:46;;;;;;;5.65;5.22;;;;;;;;;;10326795;28;20310;-81
2023/03/22 09:35:50;;;;;;;5.10;4.60;;;;;;;;;;10310388;28;20228;-82
2023/03/22 09:40:59;;;;;;;5.82;5.22;;;;;;;;;;10316332;28;20227;-80
2023/03/22 09:46:02;;;;;;;6.65;5.30;;;;;;;;;;10295490;28;20226;-79
2023/03/22 09:51:04;;;;;;;8.38;5.07;;;;;;;;;;10317839;28;20792;-80
2023/03/22 09:56:23;;;;;;;6.28;4.82;;;;;;;;;;10333776;28;20224;-84
2023/03/22 10:01:35;;;;;;;5.75;3.92;;;;;;;;;;10323584;28;20347;-83
2023/03/22 10:06:37;;;;;;;3.80;2.80;;;;;;;;;;10295298;28;20216;-83
2023/03/22 10:11:40;;;;;;;4.03;3.38;;;;;;;;;;10313595;28;20588;-82
2023/03/22 10:16:42;;;;;;;6.20;3.72;;;;;;;;;;10291980;28;20243;-82
2023/03/22 10:21:44;;;;;;;4.75;2.80;;;;;;;;;;10283702;28;20248;-83
2023/03/22 10:26:47;;;;;;;3.55;2.85;;;;;;;;;;10308618;28;20213;-80
2023/03/22 10:31:48;;;;;;;3.45;3.15;;;;;;;;;;10318144;28;20842;-81
2023/03/22 10:36:51;;;;;;;4.15;3.40;;;;;;;;;;10300494;28;20589;-80
2023/03/22 10:41:56;;;;;;;4.93;3.22;;;;;;;;;;10307834;28;20235;-81
2023/03/22 10:46:59;;;;;;;3.47;2.63;;;;;;;;;;10303693;28;20225;-83
2023/03/22 10:52:08;;;;;;;2.33;2.22;;;;;;;;;;10311754;28;20231;-83
2023/03/22 10:57:09;;;;;;;2.03;1.92;;;;;;;;;;10320809;28;20224;-82
2023/03/22 11:02:38;;;;;;;2.30;1.98;;;;;;;;;;10313799;28;20224;-81
2023/03/22 11:07:43;;;;;;;2.50;1.67;;;;;;;;;;10311545;28;20212;-81
2023/03/22 11:12:47;;;;;;;1.80;1.52;;;;;;;;;;10312063;28;20223;-80
2023/03/22 11:17:49;;;;;;;2.28;1.40;;;;;;;;;;10302643;28;20235;-80
2023/03/22 11:22:50;;;;;;;2.15;1.45;;;;;;;;;;10320514;28;20224;-83
2023/03/22 11:28:11;;;;;;;1.40;1.30;;;;;;;;;;10304839;28;20254;-81
2023/03/22 11:33:24;;;;;;;2.05;1.10;;;;;;;;;;10289330;28;20243;-83
2023/03/22 11:38:28;;;;;;;1.20;1.10;;;;;;;;;;10316492;28;20258;-80
2023/03/22 11:43:35;;;;;;;3.70;1.00;;;;;;;;;;10323892;28;20232;-82
2023/03/22 11:48:36;;;;;;;1.77;1.10;;;;;;;;;;10321427;28;21669;-80
2023/03/22 11:53:39;;;;;;;2.95;1.00;;;;;;;;;;10355085;28;20244;-82
2023/03/22 11:58:58;;;;;;;0.80;0.80;;;;;;;;;;10351380;28;20243;-81
2023/03/22 12:04:04;;;;;;;1.20;1.10;;;;;;;;;;10339009;28;20228;-82
2023/03/22 12:09:08;;;;;;;1.77;0.93;;;;;;;;;;10307410;28;20541;-81
2023/03/22 12:14:19;;;;;;;1.45;1.02;;;;;;;;;;10323506;28;20714;-83
2023/03/22 12:19:20;;;;;;;2.42;1.48;;;;;;;;;;10308393;28;20224;-80
2023/03/22 12:24:26;;;;;;;1.17;1.05;;;;;;;;;;10324125;28;20320;-82
2023/03/22 12:29:28;;;;;;;5.55;1.00;;;;;;;;;;10324264;28;20244;-81
2023/03/22 12:34:36;;;;;;;0.90;0.90;;;;;;;;;;10320355;28;20309;-81
2023/03/22 12:39:37;;;;;;;0.90;0.90;;;;;;;;;;10313224;28;20774;-82
2023/03/22 12:44:42;;;;;;;2.22;1.08;;;;;;;;;;10336710;28;20226;-81
2023/03/22 12:49:48;;;;;;;1.85;0.80;;;;;;;;;;10337687;28;20686;-81
2023/03/22 12:54:50;;;;;;;3.53;1.30;;;;;;;;;;10304783;28;20225;-80
2023/03/22 12:59:52;;;;;;;1.35;1.35;;;;;;;;;;10324401;28;20216;-80
2023/03/22 13:04:55;;;;;;;1.10;1.10;;;;;;;;;;10306648;28;21066;-81
2023/03/22 13:09:59;;;;;;;1.88;1.13;;;;;;;;;;10331724;28;20223;-81
2023/03/22 13:15:03;;;;;;;2.33;1.40;;;;;;;;;;10315021;28;20246;-82
2023/03/22 13:20:07;;;;;;;2.00;1.80;;;;;;;;;;10301674;28;20212;-82
2023/03/22 13:25:15;;;;;;;4.07;1.80;;;;;;;;;;10305952;28;20224;-81
2023/03/22 13:30:37;;;;;;;2.08;1.98;;;;;;;;;;10331840;28;20690;-79
2023/03/22 13:35:45;;;;;;;4.97;2.05;;;;;;;;;;10313153;28;20285;-82
2023/03/22 13:40:51;;;;;;;2.08;1.88;;;;;;;;;;10302451;28;20232;-83
2023/03/22 13:46:02;;;;;;;1.92;1.83;;;;;;;;;;10304477;28;20505;-82
2023/03/22 13:51:12;;;;;;;1.98;1.30;;;;;;;;;;10303336;28;20301;-80
2023/03/22 13:56:14;;;;;;;2.30;1.75;;;;;;;;;;10305662;28;20250;-81
2023/03/22 14:01:16;;;;;;;2.17;1.73;;;;;;;;;;10313780;28;20220;-80
2023/03/22 14:06:23;;;;;;;3.30;1.85;;;;;;;;;;10316671;28;20474;-81
2023/03/22 14:11:37;;;;;;;2.20;2.00;;;;;;;;;;10302255;28;20270;-79
2023/03/22 14:16:43;;;;;;;1.90;1.80;;;;;;;;;;10312236;28;21895;-77
2023/03/22 14:21:48;;;;;;;2.75;1.70;;;;;;;;;;10304163;28;20628;-80
2023/03/22 14:26:51;;;;;;;2.40;1.70;;;;;;;;;;10294412;28;20378;-81
2023/03/22 14:32:02;;;;;;;2.00;1.85;;;;;;;;;;10315231;28;20663;-80
2023/03/22 14:37:07;;;;;;;1.63;1.52;;;;;;;;;;10305205;28;20227;-79
2023/03/22 14:42:15;;;;;;;2.60;1.98;;;;;;;;;;10279911;28;20244;-80
2023/03/22 14:47:21;;;;;;;1.63;1.52;;;;;;;;;;10289839;28;20220;-79
2023/03/22 14:52:24;;;;;;;1.92;1.80;;;;;;;;;;10299199;28;20244;-76
2023/03/22 14:57:27;;;;;;;2.90;1.90;;;;;;;;;;10300900;28;20224;-80
2023/03/22 15:02:35;;;;;;;1.80;1.70;;;;;;;;;;10315906;28;20726;-79
2023/03/22 15:07:47;;;;;;;2.25;1.77;;;;;;;;;;10306577;28;20224;-80
2023/03/22 15:12:49;;;;;;;2.13;1.50;;;;;;;;;;10311834;28;20234;-81
2023/03/22 15:17:51;;;;;;;2.95;1.48;;;;;;;;;;10310774;28;20227;-79
2023/03/22 15:22:54;;;;;;;2.35;1.73;;;;;;;;;;10300539;28;20702;-79
2023/03/22 15:27:55;;;;;;;1.45;1.40;;;;;;;;;;10310897;28;20308;-77
2023/03/22 15:33:04;;;;;;;1.33;0.90;;;;;;;;;;10317385;28;20262;-79
2023/03/22 15:38:06;;;;;;;1.40;1.30;;;;;;;;;;10310637;28;20227;-79
2023/03/22 15:43:19;;;;;;;3.05;1.48;;;;;;;;;;10281798;28;20775;-79
2023/03/22 15:48:24;;;;;;;2.13;1.73;;;;;;;;;;10310666;28;20217;-79
2023/03/22 15:53:28;;;;;;;1.58;1.58;;;;;;;;;;10297593;28;20388;-81
2023/03/22 15:58:31;;;;;;;1.63;1.63;;;;;;;;;;10309121;28;20228;-79
2023/03/22 16:03:41;;;;;;;2.75;1.60;;;;;;;;;;10300894;28;20235;-78
2023/03/22 16:08:42;;;;;;;2.50;1.52;;;;;;;;;;10296960;28;20223;-79
2023/03/22 16:13:43;;;;;;;1.85;1.55;;;;;;;;;;10315445;28;20287;-80
2023/03/22 16:18:44;;;;;;;2.28;2.10;;;;;;;;;;10288672;28;20626;-79
2023/03/22 16:23:45;;;;;;;2.25;1.60;;;;;;;;;;10318790;28;20225;-80
2023/03/22 16:28:46;;;;;;;2.85;1.60;;;;;;;;;;10326929;28;20310;-79
2023/03/22 16:33:47;;;;;;;2.53;1.48;;;;;;;;;;10297389;28;20242;-78
2023/03/22 16:38:48;;;;;;;2.38;1.40;;;;;;;;;;10282049;28;20290;-78
2023/03/22 16:43:49;;;;;;;1.10;1.10;;;;;;;;;;10276943;28;20322;-77
2023/03/22 16:48:50;;;;;;;1.50;1.50;;;;;;;;;;10310630;28;20219;-78
2023/03/22 16:53:52;;;;;;;3.17;2.50;;;;;;;;;;10290698;28;20488;-79
2023/03/22 16:58:52;;;;;;;2.38;2.20;;;;;;;;;;10313591;28;20760;-79
2023/03/22 17:03:54;;;;;;;2.28;1.75;;;;;;;;;;10297454;28;20274;-80
2023/03/22 17:08:55;;;;;;;2.83;1.85;;;;;;;;;;10304842;28;20486;-79
2023/03/22 17:13:59;;;;;;;1.20;1.10;;;;;;;;;;10312132;28;20706;-79
2023/03/22 17:19:00;;;;;;;2.10;1.30;;;;;;;;;;10320547;28;20224;-80
2023/03/22 17:24:01;;;;;;;1.75;1.40;;;;;;;;;;10322658;28;20252;-80
2023/03/22 17:29:02;;;;;;;1.05;1.02;;;;;;;;;;10331405;28;20843;-79
2023/03/22 17:34:04;;;;;;;3.30;3.05;;;;;;;;;;10303860;28;20248;-79
2023/03/22 17:39:08;;;;;;;3.05;1.33;;;;;;;;;;10286904;28;20227;-80
2023/03/22 17:44:09;;;;;;;0.73;0.73;;;;;;;;;;10316173;28;20387;-80
2023/03/22 17:49:10;;;;;;;2.38;0.80;;;;;;;;;;10307212;28;20239;-78
2023/03/22 17:54:11;;;;;;;2.38;1.00;;;;;;;;;;10292524;28;20359;-78
2023/03/22 17:59:12;;;;;;;1.08;1.08;;;;;;;;;;10319821;28;20491;-78
2023/03/22 18:04:13;;;;;;;1.30;1.20;;;;;;;;;;10298796;28;20239;-79
2023/03/22 18:09:15;;;;;;;1.40;1.25;;;;;;;;;;10299296;28;20227;-80
2023/03/22 18:14:16;;;;;;;1.50;1.48;;;;;;;;;;10300039;28;20239;-79
2023/03/22 18:19:17;;;;;;;1.27;1.25;;;;;;;;;;10288513;28;20227;-79
2023/03/22 18:24:18;;;;;;;1.58;1.55;;;;;;;;;;10301202;28;20228;-79
2023/03/22 18:29:19;;;;;;;1.67;1.58;;;;;;;;;;10290852;28;20552;-80
2023/03/22 18:34:20;;;;;;;3.30;1.25;;;;;;;;;;10317011;28;20285;-82
2023/03/22 18:39:23;;;;;;;3.15;1.85;;;;;;;;;;10325413;28;20254;-79
2023/03/22 18:44:25;;;;;;;2.60;2.30;;;;;;;;;;10312124;28;20246;-80
2023/03/22 18:49:26;;;;;;;2.40;2.20;;;;;;;;;;10310828;28;20620;-80
2023/03/22 18:54:27;;;;;;;3.83;1.50;;;;;;;;;;10321626;28;20350;-81
2023/03/22 18:59:29;;;;;;;1.50;1.50;;;;;;;;;;10317728;28;20248;-80
2023/03/22 19:04:31;;;;;;;1.80;1.70;;;;;;;;;;10312249;28;21100;-80
2023/03/22 19:09:32;;;;;;;1.67;1.67;;;;;;;;;;10313845;28;20266;-79
2023/03/22 19:14:33;;;;;;;1.90;1.65;;;;;;;;;;10297497;28;20258;-79
2023/03/22 19:19:34;;;;;;;1.80;1.70;;;;;;;;;;10321485;28;20247;-78
2023/03/22 19:24:36;;;;;;;1.65;1.55;;;;;;;;;;10304730;28;20258;-79
2023/03/22 19:29:37;;;;;;;1.80;1.70;;;;;;;;;;10314323;28;20247;-78
2023/03/22 19:34:38;;;;;;;2.97;1.65;;;;;;;;;;10307639;28;20328;-77
2023/03/22 19:39:39;;;;;;;1.90;1.80;;;;;;;;;;10317630;28;20734;-77
2023/03/22 19:44:40;;;;;;;1.80;1.70;;;;;;;;;;10275638;28;20342;-78
2023/03/22 19:49:44;;;;;;;1.83;1.83;;;;;;;;;;10324619;28;20612;-77
2023/03/22 19:54:45;;;;;;;2.42;2.10;;;;;;;;;;10303266;28;20334;-78
2023/03/22 19:59:46;;;;;;;4.55;2.85;;;;;;;;;;10316325;28;20767;-79
2023/03/22 20:04:47;;;;;;;2.38;2.20;;;;;;;;;;10291645;28;20216;-78
2023/03/22 20:09:48;;;;;;;1.90;1.80;;;;;;;;;;10292127;28;20239;-77
2023/03/22 20:14:49;;;;;;;1.92;1.77;;;;;;;;;;10297260;28;20223;-78
2023/03/22 20:19:51;;;;;;;2.28;2.17;;;;;;;;;;10307334;28;20691;-78
2023/03/22 20:24:52;;;;;;;3.03;2.83;;;;;;;;;;10305852;28;21024;-79
2023/03/22 20:29:53;;;;;;;1.98;1.88;;;;;;;;;;10310034;28;20209;-76
2023/03/22 20:34:54;;;;;;;1.67;1.67;;;;;;;;;;10306279;28;20316;-81
2023/03/22 20:39:55;;;;;;;7.25;2.28;;;;;;;;;;10308533;28;20243;-78
2023/03/22 20:44:56;;;;;;;2.05;1.85;;;;;;;;;;10310107;28;20307;-79
2023/03/22 20:49:57;;;;;;;1.40;1.40;;;;;;;;;;10283183;28;21760;-79
2023/03/22 20:54:58;;;;;;;2.88;1.20;;;;;;;;;;10287585;28;20228;-78
2023/03/22 21:00:00;;;;;;;1.90;1.23;;;;;;;;;;10316713;28;20693;-81
2023/03/22 21:05:01;;;;;;;0.85;0.85;;;;;;;;;;10290808;28;21264;-78
2023/03/22 21:10:02;;;;;;;1.83;1.17;;;;;;;;;;10322101;28;20213;-79
2023/03/22 21:15:06;;;;;;;0.75;0.75;;;;;;;;;;10307109;28;20216;-79
2023/03/22 21:20:08;;;;;;;1.33;1.23;;;;;;;;;;10311005;28;20764;-79
2023/03/22 21:25:09;;;;;;;0.63;0.63;;;;;;;;;;10318584;28;20208;-79
2023/03/22 21:30:11;;;;;;;0.52;0.52;;;;;;;;;;10316619;28;20191;-80
2023/03/22 21:35:12;;;;;;;0.82;0.70;;;;;;;;;;10294987;28;20224;-78
2023/03/22 21:40:13;;;;;;;0.70;0.70;;;;;;;;;;10293167;28;20185;-79
2023/03/22 21:45:14;;;;;;;0.77;0.77;;;;;;;;;;10293345;28;20227;-79
2023/03/22 21:50:16;;;;;;;0.70;0.70;;;;;;;;;;10308673;28;20193;-78
2023/03/22 21:55:19;;;;;;;2.28;0.70;;;;;;;;;;10302435;28;20228;-79
2023/03/22 22:00:23;;;;;;;1.38;0.73;;;;;;;;;;10327267;28;20184;-78
2023/03/22 22:05:25;;;;;;;0.50;0.50;;;;;;;;;;10309558;28;20311;-78
2023/03/22 22:10:29;;;;;;;0.60;0.60;;;;;;;;;;10320148;28;20252;-77
2023/03/22 22:15:30;;;;;;;0.63;0.50;;;;;;;;;;10299608;28;20220;-77
2023/03/22 22:20:32;;;;;;;0.57;0.57;;;;;;;;;;10318381;28;20224;-77
2023/03/22 22:25:35;;;;;;;0.40;0.40;;;;;;;;;;10289891;28;20236;-76
2023/03/22 22:30:37;;;;;;;1.30;0.60;;;;;;;;;;10304927;28;20261;-77
2023/03/22 22:35:38;;;;;;;3.22;0.50;;;;;;;;;;10308816;28;20231;-78
2023/03/22 22:40:43;;;;;;;0.90;0.40;;;;;;;;;;10323786;28;20227;-79
2023/03/22 22:45:44;;;;;;;3.53;0.50;;;;;;;;;;10308951;28;20701;-77
2023/03/22 22:50:45;;;;;;;0.55;0.55;;;;;;;;;;10297881;28;20307;-77
2023/03/22 22:55:46;;;;;;;0.40;0.40;;;;;;;;;;10320001;28;20994;-78
2023/03/22 23:00:47;;;;;;;1.08;0.50;;;;;;;;;;10293403;28;20247;-77
2023/03/22 23:05:48;;;;;;;0.93;0.60;;;;;;;;;;10295175;28;20232;-78
2023/03/22 23:10:51;;;;;;;1.05;0.60;;;;;;;;;;10301148;28;20232;-78
2023/03/22 23:15:52;;;;;;;0.85;0.70;;;;;;;;;;10295644;28;20235;-77
2023/03/22 23:20:56;;;;;;;0.82;0.60;;;;;;;;;;10328993;28;20690;-78
2023/03/22 23:26:01;;;;;;;0.65;0.65;;;;;;;;;;10329926;28;20224;-75
2023/03/22 23:31:08;;;;;;;0.90;0.75;;;;;;;;;;10332637;28;20247;-78
2023/03/22 23:36:09;;;;;;;0.63;0.63;;;;;;;;;;10304395;28;20707;-78
2023/03/22 23:41:10;;;;;;;1.58;0.60;;;;;;;;;;10303186;28;20217;-79
2023/03/22 23:46:11;;;;;;;0.98;0.70;;;;;;;;;;10297196;28;20270;-79
2023/03/22 23:51:13;;;;;;;0.60;0.60;;;;;;;;;;10305748;28;20232;-77
2023/03/22 23:56:18;;;;;;;0.50;0.50;;;;;;;;;;10330779;28;20228;-79
